Hlavní strana
METAR-TAF:

METAR-TAF

Letiště :

Heliport

Værøy, Norsko

zeměpisná šířka: 67-39-16N, zeměpisná délka: 12-43-37E, výška: 5 m

Aktuální stav počasí

Zpráva byla vytvořena před 26 minutami, v 12:50 UTC
Jihojihozápadní vítr 9 kt
Teplota 8°C
Vlhkost vzduchu 93%
Tlak 1014 hPa
Viditelnost 10 km a více
Polojasno ve výšce 900 ft
Oblačno až skoro zataženo ve výšce 2600 ft
přeháňky v blízkosti

METAR: ENVR 191250Z 20009KT 9999 VCSH SCT009 BKN026 08/07 Q1014

Čas: 15:16 (13:16 UTC)


TAF: chybějící

Stav a předpovědi počasí z více než 4 000 letišť (zprávy METAR a TAF).

Červené a žluté tečky na mapě představují dostupné meteorologické stanice.

Když kurzor umístíte na tečku, zobrazí se název stanice.

Pak kliknutím zobrazíte stav a předpověď počasí.

Chcete-li změnit mapu, kliknutím na zelené tlačítko se znaménkem +mapu přiblížíte, kliknutím na zelené tlačítko se znaménkem – mapu oddálíte a kliknutím na zelené šipky přejdete na sousední mapy.


METAR-TAF: